Terminal Aerodrome Forecast
Issued by NWS New Orleans/Baton Rouge, LA

Home | Current Version | Previous Version | Text Only | Print | Product List | Glossary On
Versions: 1 2 3 4 5 6 7 8 9 10 11 12 13 14 15 16 17 18 19 20 21 22 23 24 25 26 27 28 29 30 31 32 33 34 35 36 37 38 39 40 41 42
000
FTUS44 KLIX 231139
TAFNEW
TAF
KNEW 231139Z 2312/2412 22016KT P6SM VCSH SCT020
     FM231700 27013G24KT P6SM BKN020 BKN035
     FM232200 26011KT P6SM BKN035
     FM240300 29011KT P6SM BKN050=

USA.gov is the U.S. government's official web portal to all federal, state and local government web resources and services.